createdAt,value
2017-12-26T00:00:20.491Z,0.67
2017-12-26T00:02:52.134Z,0.83
2017-12-26T00:05:23.664Z,0.80
2017-12-26T00:07:55.696Z,0.93
2017-12-26T00:10:25.884Z,1.23
2017-12-26T00:12:59.066Z,2.17
2017-12-26T00:16:04.664Z,0.70
2017-12-26T00:18:39.973Z,0.70
2017-12-26T00:21:15.928Z,0.70
2017-12-26T00:23:51.259Z,0.70
2017-12-26T00:26:23.368Z,0.90
2017-12-26T00:28:57.710Z,1.23
2017-12-26T00:31:34.469Z,0.90
2017-12-26T00:34:06.261Z,1.30
2017-12-26T00:36:41.484Z,1.30
2017-12-26T00:39:17.060Z,1.87
2017-12-26T00:41:50.821Z,1.17
2017-12-26T00:44:43.020Z,1.67
2017-12-26T00:47:29.525Z,2.07
2017-12-26T00:50:03.109Z,2.70
2017-12-26T00:52:31.951Z,2.07
2017-12-26T00:55:06.527Z,2.27
2017-12-26T00:57:39.752Z,3.00
2017-12-26T01:10:39.077Z,2.63
2017-12-26T01:13:09.030Z,2.40
2017-12-26T01:19:01.586Z,2.97
2017-12-26T01:21:32.261Z,4.90
2017-12-26T01:24:05.014Z,2.43
2017-12-26T01:26:39.285Z,2.50
2017-12-26T01:29:10.626Z,2.43
2017-12-26T01:41:52.332Z,2.53
2017-12-26T01:44:22.251Z,2.20
2017-12-26T01:50:56.003Z,2.23
2017-12-26T01:53:30.641Z,4.63
2017-12-26T01:56:05.457Z,1.43
2017-12-26T01:58:41.944Z,5.07
2017-12-26T02:01:36.463Z,4.67
2017-12-26T02:04:08.777Z,2.87
2017-12-26T02:06:39.993Z,1.90
2017-12-26T02:09:09.353Z,3.07
2017-12-26T02:11:43.623Z,3.87
2017-12-26T02:14:13.791Z,3.23
2017-12-26T02:20:49.075Z,1.23
2017-12-26T02:23:21.113Z,3.43
2017-12-26T02:25:50.911Z,2.07
2017-12-26T02:28:20.399Z,2.57
2017-12-26T02:31:42.976Z,1.93
2017-12-26T02:34:19.392Z,3.03
2017-12-26T02:36:55.859Z,4.87
2017-12-26T02:39:28.019Z,2.17
2017-12-26T02:41:58.188Z,1.80
2017-12-26T02:44:29.321Z,3.13
2017-12-26T02:47:01.720Z,1.87
2017-12-26T02:49:43.587Z,2.20
2017-12-26T02:52:14.837Z,2.77
2017-12-26T02:54:44.279Z,2.13
2017-12-26T02:57:15.356Z,2.73
2017-12-26T02:59:45.469Z,6.53
2017-12-26T03:02:20.240Z,5.13
2017-12-26T03:04:55.359Z,5.43
2017-12-26T03:07:30.262Z,3.07
2017-12-26T03:10:07.177Z,3.13
2017-12-26T03:12:39.526Z,1.73
2017-12-26T03:15:09.507Z,2.27
2017-12-26T03:17:46.131Z,4.20
2017-12-26T03:20:22.114Z,2.57
2017-12-26T03:22:59.747Z,5.67
2017-12-26T03:25:34.960Z,1.20
2017-12-26T03:28:09.805Z,2.87
2017-12-26T03:30:45.831Z,0.90
2017-12-26T03:33:22.223Z,3.13
2017-12-26T03:35:57.750Z,1.73
2017-12-26T03:38:32.892Z,0.97
2017-12-26T03:41:07.440Z,1.53
2017-12-26T03:43:42.246Z,3.70
2017-12-26T03:46:19.081Z,1.50
2017-12-26T03:49:12.270Z,1.53
2017-12-26T03:51:46.832Z,1.97
2017-12-26T03:54:18.819Z,1.83
2017-12-26T03:56:49.880Z,0.93
2017-12-26T03:59:19.404Z,1.90
2017-12-26T04:01:50.140Z,1.90
2017-12-26T04:04:19.296Z,1.50
2017-12-26T04:06:54.338Z,3.07
2017-12-26T04:09:29.673Z,2.10
2017-12-26T04:12:00.192Z,1.57
2017-12-26T04:14:30.995Z,1.93
2017-12-26T04:17:01.376Z,2.00
2017-12-26T04:23:34.362Z,1.40
2017-12-26T04:26:04.666Z,1.00
2017-12-26T04:28:43.865Z,0.80
2017-12-26T04:31:24.377Z,1.47
2017-12-26T04:41:06.608Z,0.67
2017-12-26T04:43:36.756Z,1.13
2017-12-26T04:46:06.673Z,1.03
2017-12-26T04:49:15.386Z,0.73
2017-12-26T04:51:44.730Z,1.73
2017-12-26T04:54:15.737Z,0.60
2017-12-26T04:56:49.021Z,1.63
2017-12-26T04:59:26.455Z,4.37
2017-12-26T05:02:02.567Z,0.50
2017-12-26T05:18:41.511Z,7.53
2017-12-26T05:21:12.384Z,1.60
2017-12-26T05:23:44.308Z,2.27
2017-12-26T05:26:19.805Z,1.00
2017-12-26T05:28:53.805Z,2.83
2017-12-26T05:31:23.799Z,5.07
2017-12-26T05:34:01.344Z,1.30
2017-12-26T05:36:38.991Z,2.80
2017-12-26T05:39:09.105Z,1.83
2017-12-26T05:41:44.183Z,0.93
2017-12-26T05:44:15.081Z,1.57
2017-12-26T05:46:50.298Z,1.50
2017-12-26T05:49:26.847Z,2.27
2017-12-26T05:52:06.408Z,3.13
2017-12-26T05:54:43.075Z,4.70
2017-12-26T05:57:17.885Z,1.67
2017-12-26T05:59:52.768Z,4.03
2017-12-26T06:02:22.522Z,3.57
2017-12-26T06:05:16.343Z,2.27
2017-12-26T06:07:49.755Z,2.77
2017-12-26T06:10:26.387Z,1.27
2017-12-26T06:13:04.826Z,3.03
2017-12-26T06:15:35.428Z,2.20
2017-12-26T06:18:05.165Z,1.80
2017-12-26T06:24:35.965Z,1.10
2017-12-26T06:27:14.979Z,1.77
2017-12-26T06:29:49.495Z,2.37
2017-12-26T06:32:24.292Z,1.80
2017-12-26T06:34:53.597Z,2.53
2017-12-26T07:00:06.846Z,2.33
2017-12-26T07:02:37.710Z,2.93
2017-12-26T07:05:13.860Z,4.50
2017-12-26T07:27:57.440Z,4.87
2017-12-26T07:33:26.030Z,3.23
2017-12-26T07:35:57.224Z,1.23
2017-12-26T07:38:28.286Z,3.30
2017-12-26T07:41:04.878Z,3.63
2017-12-26T07:43:41.230Z,2.23
2017-12-26T07:46:10.667Z,2.03
2017-12-26T07:48:39.793Z,1.23
2017-12-26T07:51:36.664Z,3.70
2017-12-26T07:54:07.995Z,2.80
2017-12-26T07:56:44.328Z,4.47
2017-12-26T07:59:23.339Z,5.17
2017-12-26T08:01:58.718Z,2.87
2017-12-26T08:04:30.811Z,8.93
2017-12-26T08:10:50.930Z,4.83
2017-12-26T08:13:26.744Z,8.63
2017-12-26T08:15:56.354Z,5.13
2017-12-26T08:18:28.353Z,3.33
2017-12-26T08:21:04.923Z,1.47
2017-12-26T08:30:26.156Z,3.73
2017-12-26T08:32:57.752Z,6.73
2017-12-26T08:35:45.687Z,6.33
2017-12-26T08:48:45.790Z,2.43
2017-12-26T08:51:19.547Z,3.27
2017-12-26T09:10:58.072Z,5.07
2017-12-26T09:13:28.645Z,7.23
2017-12-26T09:19:05.257Z,3.73
2017-12-26T09:21:34.012Z,7.53
2017-12-26T09:24:28.296Z,7.67
2017-12-26T09:27:02.827Z,2.30
2017-12-26T09:29:40.911Z,6.77
2017-12-26T09:32:15.627Z,8.23
2017-12-26T09:34:47.650Z,3.60
2017-12-26T09:37:23.642Z,4.00
2017-12-26T09:47:04.178Z,6.40
2017-12-26T09:49:38.610Z,5.17
2017-12-26T09:52:08.613Z,5.00
2017-12-26T09:58:09.410Z,5.10
2017-12-26T10:00:46.102Z,5.93
2017-12-26T10:03:17.833Z,6.00
2017-12-26T10:05:48.146Z,3.97
2017-12-26T10:08:20.258Z,4.67
2017-12-26T10:11:02.732Z,4.47
2017-12-26T10:13:44.332Z,10.87
2017-12-26T10:16:17.497Z,7.93
2017-12-26T10:18:51.000Z,4.40
2017-12-26T10:21:21.903Z,5.70
2017-12-26T10:23:52.734Z,6.20
2017-12-26T10:30:23.956Z,6.20
2017-12-26T10:33:00.403Z,4.37
2017-12-26T10:35:35.117Z,5.73
2017-12-26T10:38:07.850Z,8.57
2017-12-26T10:40:58.742Z,5.00
2017-12-26T10:43:30.934Z,5.00
2017-12-26T10:46:05.030Z,7.10
2017-12-26T10:48:38.867Z,13.47
2017-12-26T10:51:15.089Z,5.03
2017-12-26T10:53:50.640Z,3.63
2017-12-26T10:56:43.583Z,7.53
2017-12-26T10:59:13.309Z,4.80
2017-12-26T11:01:45.815Z,5.57
2017-12-26T11:04:18.407Z,8.97
2017-12-26T11:06:53.376Z,9.30
2017-12-26T11:09:27.060Z,8.40
2017-12-26T11:22:23.098Z,5.83
2017-12-26T11:24:55.447Z,4.67
2017-12-26T11:27:29.636Z,5.37
2017-12-26T11:30:03.665Z,5.10
2017-12-26T11:32:36.189Z,6.17
2017-12-26T11:35:08.080Z,7.07
2017-12-26T11:37:37.147Z,7.60
2017-12-26T11:44:09.844Z,6.87
2017-12-26T11:46:45.737Z,7.40
2017-12-26T11:49:22.698Z,7.60
2017-12-26T11:51:57.239Z,6.00
2017-12-26T11:54:34.659Z,7.63
2017-12-26T11:57:12.570Z,6.23
2017-12-26T11:59:47.687Z,9.10
2017-12-26T12:02:18.115Z,11.83
2017-12-26T12:04:50.834Z,6.97
2017-12-26T12:07:24.535Z,8.30
2017-12-26T12:09:58.266Z,9.87
2017-12-26T12:12:33.827Z,11.10
2017-12-26T12:15:09.389Z,4.23
2017-12-26T12:17:43.348Z,7.83
2017-12-26T12:20:14.349Z,9.27
2017-12-26T12:22:43.920Z,5.80
2017-12-26T12:25:14.612Z,5.97
2017-12-26T12:27:47.690Z,8.73
2017-12-26T12:30:18.638Z,3.93
2017-12-26T12:32:52.487Z,5.67
2017-12-26T12:35:23.882Z,7.40
2017-12-26T12:37:58.017Z,5.63
2017-12-26T12:40:48.669Z,7.00
2017-12-26T12:43:29.380Z,8.97
2017-12-26T12:46:10.989Z,10.30
2017-12-26T12:48:42.976Z,9.73
2017-12-26T12:51:14.407Z,13.57
2017-12-26T12:53:49.684Z,8.13
2017-12-26T12:56:23.889Z,8.00
2017-12-26T12:58:58.340Z,7.47
2017-12-26T13:01:38.772Z,11.77
2017-12-26T13:04:13.048Z,6.53
2017-12-26T13:06:53.000Z,9.47
2017-12-26T13:09:29.230Z,8.90
2017-12-26T13:12:38.481Z,7.00
2017-12-26T13:15:07.421Z,9.23
2017-12-26T13:17:37.716Z,4.93
2017-12-26T13:22:57.633Z,8.97
2017-12-26T13:25:28.781Z,12.50
2017-12-26T13:28:26.436Z,10.87
2017-12-26T13:30:58.100Z,11.33
2017-12-26T13:33:32.721Z,7.50
2017-12-26T13:36:03.667Z,8.20
2017-12-26T13:38:33.361Z,7.97
2017-12-26T13:41:09.724Z,13.07
2017-12-26T13:44:08.257Z,12.53
2017-12-26T13:46:41.549Z,24.47
2017-12-26T13:49:15.549Z,17.67
2017-12-26T13:51:53.490Z,13.97
2017-12-26T13:54:26.103Z,34.17
2017-12-26T13:56:57.373Z,29.93
2017-12-26T13:59:28.471Z,56.03
2017-12-26T14:02:05.613Z,27.30
2017-12-26T14:04:38.124Z,20.97
2017-12-26T14:07:06.971Z,19.93
2017-12-26T14:09:38.282Z,12.60
2017-12-26T14:12:38.675Z,44.50
2017-12-26T14:15:14.228Z,19.00
2017-12-26T14:17:50.436Z,15.47
2017-12-26T14:20:31.927Z,11.20
2017-12-26T14:23:06.279Z,20.53
2017-12-26T14:25:39.844Z,48.30
2017-12-26T14:28:15.613Z,118.50
2017-12-26T14:30:51.294Z,141.37
2017-12-26T14:33:24.955Z,86.27
2017-12-26T14:35:59.875Z,56.40
2017-12-26T14:38:37.109Z,21.83
2017-12-26T14:41:12.318Z,13.53
2017-12-26T14:50:45.519Z,23.80
2017-12-26T14:53:17.576Z,15.47
2017-12-26T14:55:46.014Z,14.50
2017-12-26T14:58:19.883Z,8.53
2017-12-26T15:00:56.292Z,11.87
2017-12-26T15:03:32.805Z,6.40
2017-12-26T15:06:08.222Z,11.17
2017-12-26T15:08:42.139Z,15.47
2017-12-26T15:11:17.217Z,12.20
2017-12-26T15:13:53.802Z,14.93
2017-12-26T15:16:27.582Z,8.87
2017-12-26T15:19:04.301Z,11.13
2017-12-26T15:21:39.569Z,10.50
2017-12-26T15:24:15.517Z,7.27
2017-12-26T15:26:52.801Z,12.03
2017-12-26T15:29:30.945Z,8.80
2017-12-26T15:32:06.510Z,8.37
2017-12-26T15:34:40.871Z,10.00
2017-12-26T15:37:14.362Z,14.97
2017-12-26T15:39:49.425Z,10.80
2017-12-26T15:42:25.931Z,8.80
2017-12-26T15:48:19.630Z,12.47
2017-12-26T15:50:56.981Z,9.20
2017-12-26T15:53:33.390Z,7.20
2017-12-26T15:56:06.925Z,13.57
2017-12-26T16:02:22.203Z,9.77
2017-12-26T16:04:52.686Z,12.30
2017-12-26T16:07:25.886Z,10.60
2017-12-26T16:09:58.094Z,16.40
2017-12-26T16:12:32.293Z,12.30
2017-12-26T16:15:43.890Z,7.97
2017-12-26T16:18:13.540Z,8.57
2017-12-26T16:20:43.437Z,13.00
2017-12-26T16:23:21.304Z,11.63
2017-12-26T16:25:57.243Z,9.83
2017-12-26T16:28:32.811Z,9.50
2017-12-26T16:31:05.097Z,10.97
2017-12-26T16:33:39.309Z,12.13
2017-12-26T16:36:12.311Z,9.27
2017-12-26T16:38:45.800Z,14.10
2017-12-26T16:41:24.043Z,7.07
2017-12-26T16:43:55.848Z,10.27
2017-12-26T16:46:25.157Z,9.93
2017-12-26T16:48:54.904Z,9.63
2017-12-26T16:51:31.211Z,5.63
2017-12-26T16:54:06.394Z,9.83
2017-12-26T16:56:40.904Z,6.17
2017-12-26T16:59:35.522Z,9.63
2017-12-26T17:02:07.988Z,7.63
2017-12-26T17:04:50.306Z,9.77
2017-12-26T17:07:31.800Z,8.67
2017-12-26T17:10:06.907Z,8.97
2017-12-26T17:12:40.463Z,9.57
2017-12-26T17:15:15.941Z,11.20
2017-12-26T17:17:52.101Z,11.07
2017-12-26T17:20:26.568Z,9.53
2017-12-26T17:23:05.279Z,7.10
2017-12-26T17:25:40.693Z,11.73
2017-12-26T17:28:14.188Z,12.43
2017-12-26T17:30:49.439Z,7.47
2017-12-26T17:33:22.597Z,9.83
2017-12-26T17:35:54.691Z,10.20
2017-12-26T17:38:24.648Z,13.80
2017-12-26T17:40:56.191Z,12.33
2017-12-26T17:43:29.423Z,8.67
2017-12-26T17:46:27.702Z,10.37
2017-12-26T17:49:05.375Z,8.10
2017-12-26T17:51:41.743Z,14.13
2017-12-26T17:54:16.799Z,8.77
2017-12-26T17:56:53.398Z,10.90
2017-12-26T18:02:39.014Z,9.53
2017-12-26T18:05:12.639Z,8.30
2017-12-26T18:07:51.589Z,13.40
2017-12-26T18:10:27.728Z,11.93
2017-12-26T18:13:04.718Z,9.93
2017-12-26T18:39:12.669Z,9.20
2017-12-26T18:41:47.273Z,7.73
2017-12-26T18:44:23.407Z,6.93
2017-12-26T18:47:35.474Z,8.23
2017-12-26T18:50:05.379Z,8.83
2017-12-26T18:52:41.279Z,12.27
2017-12-26T18:55:14.834Z,9.17
2017-12-26T18:57:49.011Z,6.60
2017-12-26T19:17:35.241Z,6.90
2017-12-26T19:20:15.062Z,9.60
2017-12-26T19:52:58.285Z,14.80
2017-12-26T19:55:32.819Z,10.27
2017-12-26T19:58:07.713Z,7.80
2017-12-26T20:00:42.968Z,9.23
2017-12-26T20:13:58.059Z,5.90
2017-12-26T20:19:50.261Z,12.00
2017-12-26T20:22:19.998Z,12.17
2017-12-26T20:24:52.618Z,12.70
2017-12-26T20:27:26.571Z,10.17
2017-12-26T20:30:02.179Z,11.53
2017-12-26T20:33:11.792Z,10.73
2017-12-26T20:35:43.028Z,13.40
2017-12-26T20:38:13.686Z,13.60
2017-12-26T20:40:49.744Z,9.93
2017-12-26T20:43:23.815Z,11.87
2017-12-26T20:45:54.315Z,14.80
2017-12-26T20:49:11.143Z,12.93
2017-12-26T20:51:43.086Z,12.63
2017-12-26T20:54:11.412Z,8.53
2017-12-26T20:56:48.967Z,10.60
2017-12-26T20:59:23.341Z,9.83
2017-12-26T21:01:55.144Z,15.67
2017-12-26T21:04:50.260Z,10.60
2017-12-26T21:07:22.535Z,8.80
2017-12-26T21:09:53.927Z,9.97
2017-12-26T21:12:23.655Z,10.30
2017-12-26T21:14:58.132Z,14.20
2017-12-26T21:17:53.876Z,8.90
2017-12-26T21:20:22.449Z,11.10
2017-12-26T21:22:53.384Z,13.73
2017-12-26T21:25:27.431Z,11.23
2017-12-26T21:27:58.864Z,12.13
2017-12-26T21:30:27.400Z,7.70
2017-12-26T21:32:57.515Z,9.40
2017-12-26T21:35:26.967Z,9.70
2017-12-26T21:37:55.770Z,9.20
2017-12-26T21:40:29.582Z,11.43
2017-12-26T21:43:03.070Z,9.73
2017-12-26T21:45:36.103Z,9.43
2017-12-26T21:55:11.076Z,15.17
2017-12-26T21:57:42.509Z,12.30
2017-12-26T22:00:13.511Z,9.67
2017-12-26T22:02:45.336Z,14.57
2017-12-26T22:05:19.095Z,13.10
2017-12-26T22:07:53.101Z,9.67
2017-12-26T22:10:24.455Z,15.87
2017-12-26T22:12:53.723Z,10.40
2017-12-26T22:15:24.500Z,14.53
2017-12-26T22:17:53.342Z,13.53
2017-12-26T22:21:09.322Z,9.97
2017-12-26T22:23:40.436Z,7.90
2017-12-26T22:26:09.424Z,10.57
2017-12-26T22:28:40.659Z,9.73
2017-12-26T22:31:13.012Z,11.17
2017-12-26T22:33:47.962Z,15.27
2017-12-26T22:36:24.717Z,13.57
2017-12-26T22:39:00.487Z,10.87
2017-12-26T22:41:33.828Z,18.63
2017-12-26T22:44:07.271Z,12.10
2017-12-26T22:46:43.732Z,16.13
2017-12-26T22:49:16.791Z,14.30
2017-12-26T22:51:52.263Z,16.10
2017-12-26T22:54:22.155Z,10.67
2017-12-26T22:56:57.195Z,16.43
2017-12-26T22:59:32.129Z,13.40
2017-12-26T23:02:03.399Z,10.63
2017-12-26T23:11:26.068Z,13.80
2017-12-26T23:14:09.332Z,16.13
2017-12-26T23:16:44.493Z,12.90
2017-12-26T23:19:20.439Z,15.13
2017-12-26T23:21:49.739Z,15.83
2017-12-26T23:24:29.345Z,11.70
2017-12-26T23:27:10.411Z,12.97
2017-12-26T23:29:49.749Z,9.70
2017-12-26T23:32:28.475Z,6.87
2017-12-26T23:45:44.101Z,7.83
2017-12-26T23:48:25.320Z,8.57
2017-12-26T23:51:43.995Z,7.80
2017-12-26T23:54:19.015Z,9.53
2017-12-26T23:56:54.922Z,6.27
2017-12-26T23:59:31.832Z,7.27
